EPWR

Copernicus Wrocław Airport

Wrocław, Poland
TAF EPWR 181730Z 1818/1918 27005KT CAVOK TEMPO 1900/1909 BKN012 PROB30 TEMPO 1903/1909 BKN006
Issued Valid From Valid To
Jan-18 @ 17:30 UTC
(3 hours ago)
Jan-18 @ 18:00 UTC
(2 hours ago)
Jan-19 @ 18:00 UTC
(in 22 hours)
Jan-18 @ 18:00 to Jan-19 @ 18:00
TAF EPWR 181730Z 1818/1918 27005KT CAVOK
Wind Visibility Clouds Conditions
270° at 5 knots 10,000+ meters
  • No significant clouds
Temporary Jan-19 @ 00:00 to Jan-19 @ 09:00
TEMPO 1900/1909 BKN012
Clouds
  • Broken at 1,200' AGL
Temporary  (Probability 30%) Jan-19 @ 03:00 to Jan-19 @ 09:00
PROB30 TEMPO 1903/1909 BKN006
Clouds
  • Broken at 600' AGL
TAF EPWR 181730Z 1818/1918 27005KT CAVOK TEMPO 1900/1909 BKN012 PROB30 TEMPO 1903/1909 BKN006
Issued Jan-18 @ 17:30 UTC
(3 hours ago)
Valid From Jan-18 @ 18:00 UTC
(2 hours ago)
Valid To Jan-19 @ 18:00 UTC
(in 22 hours)
Jan-18 @ 18:00 - Jan-19 @ 18:00
Wind Visibility
270° at 5 knots 10,000+ meters
Clouds
  • No significant clouds
Conditions
Temporary Jan-19 @ 00:00 - Jan-19 @ 09:00
Clouds
  • Broken at 1,200' AGL
Probability 30% Temporary Jan-19 @ 03:00 - Jan-19 @ 09:00
Clouds
  • Broken at 600' AGL